createdAt,value
2019-01-04T00:01:51.001Z,10.73
2019-01-04T00:07:27.776Z,10.30
2019-01-04T00:09:56.970Z,10.00
2019-01-04T00:12:26.219Z,11.30
2019-01-04T00:14:55.410Z,11.90
2019-01-04T00:17:24.702Z,12.00
2019-01-04T00:19:53.859Z,11.50
2019-01-04T00:22:23.059Z,10.20
2019-01-04T00:24:52.344Z,10.73
2019-01-04T00:27:21.542Z,11.27
2019-01-04T00:29:50.803Z,10.90
2019-01-04T00:32:20.099Z,11.30
2019-01-04T00:34:49.422Z,10.73
2019-01-04T00:37:18.653Z,11.90
2019-01-04T00:39:47.916Z,10.20
2019-01-04T00:42:17.354Z,9.60
2019-01-04T00:44:46.857Z,10.97
2019-01-04T00:47:16.082Z,11.33
2019-01-04T00:49:45.312Z,11.40
2019-01-04T00:52:14.536Z,10.17
2019-01-04T00:54:44.049Z,10.17
2019-01-04T00:57:51.247Z,10.17
2019-01-04T01:00:58.537Z,10.63
2019-01-04T01:04:05.800Z,9.80
2019-01-04T01:10:47.816Z,10.40
2019-01-04T01:17:30.155Z,11.90
2019-01-04T01:24:10.205Z,10.53
2019-01-04T01:27:17.488Z,11.87
2019-01-04T01:30:25.016Z,12.37
2019-01-04T01:33:36.047Z,12.10
2019-01-04T01:36:43.311Z,11.70
2019-01-04T01:39:50.548Z,11.73
2019-01-04T01:42:58.069Z,11.17
2019-01-04T01:46:05.329Z,12.57
2019-01-04T01:49:12.650Z,12.10
2019-01-04T01:52:04.287Z,12.00
2019-01-04T01:54:33.491Z,12.53
2019-01-04T01:57:02.702Z,13.07
2019-01-04T01:59:31.913Z,12.30
2019-01-04T02:02:01.151Z,12.03
2019-01-04T02:04:30.362Z,12.67
2019-01-04T02:06:59.552Z,13.23
2019-01-04T02:09:28.770Z,13.37
2019-01-04T02:12:16.945Z,13.80
2019-01-04T02:14:46.128Z,14.50
2019-01-04T02:17:15.339Z,15.20
2019-01-04T02:19:44.560Z,15.07
2019-01-04T02:22:13.789Z,16.17
2019-01-04T02:24:43.275Z,15.77
2019-01-04T02:27:12.478Z,14.50
2019-01-04T02:29:41.717Z,14.77
2019-01-04T02:32:10.925Z,14.30
2019-01-04T02:34:40.422Z,13.23
2019-01-04T02:37:09.630Z,13.23
2019-01-04T02:39:38.853Z,12.40
2019-01-04T02:42:08.068Z,14.00
2019-01-04T02:44:37.348Z,13.87
2019-01-04T02:47:06.571Z,13.30
2019-01-04T02:49:35.793Z,15.43
2019-01-04T02:52:04.984Z,15.97
2019-01-04T02:54:34.227Z,19.43
2019-01-04T02:57:03.415Z,22.03
2019-01-04T02:59:32.638Z,20.93
2019-01-04T03:02:01.852Z,19.80
2019-01-04T03:04:31.355Z,22.70
2019-01-04T03:07:00.576Z,22.80
2019-01-04T03:09:29.803Z,23.97
2019-01-04T03:11:59.027Z,20.90
2019-01-04T03:14:28.245Z,20.07
2019-01-04T03:16:57.477Z,19.10
2019-01-04T03:19:26.688Z,21.10
2019-01-04T03:21:55.935Z,18.87
2019-01-04T03:24:25.215Z,17.63
2019-01-04T03:26:54.699Z,18.40
2019-01-04T03:29:42.904Z,18.10
2019-01-04T03:32:12.165Z,18.03
2019-01-04T03:34:41.341Z,17.47
2019-01-04T03:37:10.557Z,16.60
2019-01-04T03:39:39.774Z,17.03
2019-01-04T03:42:09.001Z,14.47
2019-01-04T03:44:38.226Z,14.80
2019-01-04T03:47:07.445Z,15.77
2019-01-04T03:49:36.926Z,14.63
2019-01-04T03:52:06.143Z,14.53
2019-01-04T03:54:35.368Z,14.27
2019-01-04T03:57:04.866Z,15.87
2019-01-04T03:59:34.366Z,14.97
2019-01-04T04:02:03.571Z,15.10
2019-01-04T04:04:33.035Z,14.03
2019-01-04T04:07:02.248Z,14.80
2019-01-04T04:09:31.447Z,15.10
2019-01-04T04:12:00.665Z,15.33
2019-01-04T04:14:29.860Z,16.13
2019-01-04T04:16:59.073Z,16.17
2019-01-04T04:19:28.600Z,16.03
2019-01-04T04:21:57.896Z,16.93
2019-01-04T04:24:27.472Z,17.27
2019-01-04T04:26:56.649Z,17.30
2019-01-04T04:29:26.169Z,16.80
2019-01-04T04:31:55.645Z,16.53
2019-01-04T04:34:24.887Z,15.90
2019-01-04T04:36:54.092Z,16.53
2019-01-04T04:39:23.660Z,15.07
2019-01-04T04:41:52.870Z,14.67
2019-01-04T04:44:22.146Z,14.87
2019-01-04T04:46:51.365Z,15.47
2019-01-04T04:49:20.591Z,16.80
2019-01-04T04:51:49.789Z,16.30
2019-01-04T04:54:19.031Z,15.93
2019-01-04T04:56:48.214Z,16.20
2019-01-04T04:59:17.701Z,13.47
2019-01-04T05:01:46.882Z,15.13
2019-01-04T05:04:55.479Z,14.40
2019-01-04T05:07:24.686Z,13.30
2019-01-04T05:09:53.920Z,12.97
2019-01-04T05:12:23.137Z,13.37
2019-01-04T05:14:52.652Z,14.73
2019-01-04T05:17:22.157Z,14.20
2019-01-04T05:19:51.385Z,13.30
2019-01-04T05:22:20.582Z,13.20
2019-01-04T05:24:50.204Z,14.00
2019-01-04T05:27:19.428Z,12.83
2019-01-04T05:29:49.000Z,14.37
2019-01-04T05:32:18.647Z,14.33
2019-01-04T05:34:48.118Z,14.00
2019-01-04T05:37:17.330Z,14.40
2019-01-04T05:39:46.860Z,13.33
2019-01-04T05:42:16.075Z,14.07
2019-01-04T05:44:45.322Z,14.47
2019-01-04T05:47:14.519Z,14.00
2019-01-04T05:49:44.004Z,14.20
2019-01-04T05:52:13.225Z,15.13
2019-01-04T05:54:42.447Z,15.50
2019-01-04T05:57:11.682Z,16.10
2019-01-04T05:59:40.904Z,15.87
2019-01-04T06:02:10.452Z,16.73
2019-01-04T06:04:39.599Z,17.90
2019-01-04T06:07:08.832Z,19.63
2019-01-04T06:09:38.099Z,20.73
2019-01-04T06:12:07.394Z,18.47
2019-01-04T06:14:36.629Z,16.90
2019-01-04T06:17:06.112Z,20.90
2019-01-04T06:19:35.392Z,20.63
2019-01-04T06:22:04.635Z,20.73
2019-01-04T06:24:33.823Z,18.97
2019-01-04T06:27:03.058Z,21.17
2019-01-04T06:29:32.289Z,19.00
2019-01-04T06:32:01.548Z,20.43
2019-01-04T06:34:30.746Z,22.73
2019-01-04T06:37:00.248Z,23.17
2019-01-04T06:39:29.461Z,24.77
2019-01-04T06:41:59.080Z,27.33
2019-01-04T06:44:28.301Z,26.97
2019-01-04T06:47:20.454Z,29.73
2019-01-04T06:49:50.764Z,30.00
2019-01-04T06:52:21.346Z,31.67
2019-01-04T06:55:28.601Z,30.57
2019-01-04T06:57:57.834Z,32.17
2019-01-04T07:00:27.043Z,32.97
2019-01-04T07:02:56.285Z,33.17
2019-01-04T07:05:25.490Z,35.43
2019-01-04T07:07:54.716Z,33.87
2019-01-04T07:10:23.936Z,32.80
2019-01-04T07:12:53.394Z,33.80
2019-01-04T07:15:22.863Z,32.83
2019-01-04T07:17:52.056Z,35.20
2019-01-04T07:20:21.302Z,34.87
2019-01-04T07:22:50.807Z,34.57
2019-01-04T07:25:20.669Z,33.47
2019-01-04T07:27:49.894Z,35.90
2019-01-04T07:30:19.127Z,35.77
2019-01-04T07:32:48.343Z,36.00
2019-01-04T07:35:17.554Z,34.20
2019-01-04T07:37:46.787Z,34.57
2019-01-04T07:40:16.262Z,37.07
2019-01-04T07:42:45.545Z,35.40
2019-01-04T07:45:14.799Z,33.70
2019-01-04T07:47:44.624Z,32.83
2019-01-04T07:50:13.832Z,31.27
2019-01-04T07:52:43.061Z,31.57
2019-01-04T07:55:13.215Z,34.23
2019-01-04T07:57:42.450Z,31.57
2019-01-04T08:00:13.833Z,30.00
2019-01-04T08:02:47.597Z,27.60
2019-01-04T08:05:36.631Z,27.53
2019-01-04T08:08:06.146Z,28.63
2019-01-04T08:10:35.354Z,27.10
2019-01-04T08:13:04.559Z,27.90
2019-01-04T08:15:33.744Z,28.43
2019-01-04T08:18:02.991Z,30.23
2019-01-04T08:20:32.189Z,34.67
2019-01-04T08:23:01.425Z,24.37
2019-01-04T08:25:30.961Z,23.60
2019-01-04T08:28:00.178Z,23.50
2019-01-04T08:30:29.406Z,22.67
2019-01-04T08:32:58.913Z,21.17
2019-01-04T08:35:28.117Z,19.70
2019-01-04T08:37:57.378Z,21.70
2019-01-04T08:40:26.622Z,24.33
2019-01-04T08:42:55.849Z,21.80
2019-01-04T08:48:13.334Z,21.07
2019-01-04T08:50:42.817Z,23.30
2019-01-04T08:53:12.036Z,21.77
2019-01-04T08:55:41.243Z,20.70
2019-01-04T08:58:10.482Z,21.50
2019-01-04T09:00:39.672Z,18.93
2019-01-04T09:03:08.865Z,17.37
2019-01-04T09:05:38.067Z,16.93
2019-01-04T09:08:07.255Z,14.97
2019-01-04T09:10:36.475Z,16.27
2019-01-04T09:13:05.676Z,16.77
2019-01-04T09:15:34.918Z,15.87
2019-01-04T09:18:04.131Z,15.40
2019-01-04T09:20:33.368Z,16.50
2019-01-04T09:23:02.828Z,13.93
2019-01-04T09:25:32.305Z,14.80
2019-01-04T09:28:01.498Z,13.17
2019-01-04T09:30:30.804Z,13.00
2019-01-04T09:33:00.000Z,15.87
2019-01-04T09:35:29.229Z,14.73
2019-01-04T09:37:58.461Z,14.40
2019-01-04T09:40:27.948Z,15.27
2019-01-04T09:42:57.604Z,14.43
2019-01-04T09:45:26.904Z,14.20
2019-01-04T09:47:56.392Z,13.43
2019-01-04T09:50:25.601Z,7.90
2019-01-04T09:52:55.104Z,14.83
2019-01-04T09:55:24.327Z,15.37
2019-01-04T09:57:53.524Z,15.87
2019-01-04T10:00:23.004Z,14.77
2019-01-04T10:02:52.203Z,15.37
2019-01-04T10:05:21.387Z,14.70
2019-01-04T10:07:50.620Z,18.13
2019-01-04T10:10:19.820Z,16.97
2019-01-04T10:12:49.045Z,17.37
2019-01-04T10:15:18.543Z,14.97
2019-01-04T10:17:47.785Z,11.27
2019-01-04T10:20:16.998Z,12.70
2019-01-04T10:22:46.232Z,15.50
2019-01-04T10:25:15.867Z,14.90
2019-01-04T10:27:45.083Z,14.03
2019-01-04T10:30:33.651Z,14.30
2019-01-04T10:35:38.007Z,11.10
2019-01-04T10:38:07.513Z,11.97
2019-01-04T10:40:37.010Z,11.10
2019-01-04T10:43:06.328Z,13.10
2019-01-04T10:45:35.565Z,12.07
2019-01-04T10:48:04.786Z,11.83
2019-01-04T10:50:34.008Z,11.20
2019-01-04T10:53:22.294Z,11.60
2019-01-04T10:55:51.502Z,11.03
2019-01-04T10:58:20.713Z,11.50
2019-01-04T11:00:49.927Z,10.63
2019-01-04T11:03:19.173Z,13.07
2019-01-04T11:05:48.644Z,13.00
2019-01-04T11:08:17.883Z,13.03
2019-01-04T11:10:47.374Z,14.47
2019-01-04T11:13:16.621Z,14.17
2019-01-04T11:15:46.096Z,13.07
2019-01-04T11:18:15.594Z,15.83
2019-01-04T11:20:46.682Z,16.80
2019-01-04T11:23:53.992Z,15.60
2019-01-04T11:26:27.502Z,16.43
2019-01-04T11:29:34.767Z,22.30
2019-01-04T11:32:42.300Z,16.20
2019-01-04T11:35:49.579Z,15.37
2019-01-04T11:38:56.871Z,16.83
2019-01-04T11:42:04.127Z,15.47
2019-01-04T11:45:11.698Z,19.37
2019-01-04T11:48:18.945Z,16.03
2019-01-04T11:51:20.058Z,16.77
2019-01-04T11:53:49.640Z,17.87
2019-01-04T11:56:18.862Z,17.17
2019-01-04T11:58:48.368Z,17.37
2019-01-04T12:01:17.644Z,16.17
2019-01-04T12:03:57.250Z,16.90
2019-01-04T12:06:27.319Z,17.27
2019-01-04T12:08:57.417Z,18.13
2019-01-04T12:11:26.653Z,17.93
2019-01-04T12:13:55.865Z,16.53
2019-01-04T12:16:25.354Z,17.00
2019-01-04T12:18:54.853Z,17.77
2019-01-04T12:21:24.067Z,18.17
2019-01-04T12:23:53.552Z,18.57
2019-01-04T12:26:22.794Z,17.27
2019-01-04T12:28:52.310Z,17.40
2019-01-04T12:31:21.522Z,16.07
2019-01-04T12:33:50.816Z,17.53
2019-01-04T12:36:20.038Z,19.40
2019-01-04T12:38:49.256Z,19.57
2019-01-04T12:41:18.514Z,16.43
2019-01-04T12:43:48.054Z,20.07
2019-01-04T12:46:17.263Z,18.33
2019-01-04T12:48:46.481Z,21.23
2019-01-04T12:51:15.722Z,20.30
2019-01-04T12:53:45.277Z,21.37
2019-01-04T12:56:14.573Z,20.03
2019-01-04T12:58:43.857Z,22.53
2019-01-04T13:01:13.141Z,19.50
2019-01-04T13:03:42.415Z,25.93
2019-01-04T13:06:11.620Z,23.43
2019-01-04T13:08:41.177Z,24.37
2019-01-04T13:11:12.661Z,20.67
2019-01-04T13:13:41.874Z,25.03
2019-01-04T13:16:11.125Z,22.00
2019-01-04T13:18:40.354Z,28.85
2019-01-04T13:21:09.585Z,28.20
2019-01-04T13:23:39.144Z,23.53
2019-01-04T13:26:08.357Z,23.43
2019-01-04T13:28:37.610Z,23.57
2019-01-04T13:31:06.816Z,24.20
2019-01-04T13:33:36.055Z,19.97
2019-01-04T13:44:40.652Z,23.87
2019-01-04T13:47:10.117Z,18.60
2019-01-04T13:49:39.698Z,24.10
2019-01-04T13:52:09.018Z,25.00
2019-01-04T14:13:36.202Z,25.17
2019-01-04T14:16:05.430Z,20.70
2019-01-04T14:18:34.636Z,24.40
2019-01-04T14:21:03.857Z,25.03
2019-01-04T14:23:33.073Z,29.73
2019-01-04T14:26:02.594Z,20.87
2019-01-04T14:28:31.810Z,18.03
2019-01-04T14:31:20.479Z,26.10
2019-01-04T14:33:49.715Z,25.03
2019-01-04T14:36:19.249Z,27.77
2019-01-04T14:38:48.476Z,27.77
2019-01-04T14:41:23.355Z,24.30
2019-01-04T14:43:48.991Z,22.73
2019-01-04T14:46:18.491Z,16.40
2019-01-04T14:48:47.968Z,21.03
2019-01-04T14:53:53.401Z,20.97
2019-01-04T14:58:57.231Z,20.20
2019-01-04T15:01:26.715Z,22.67
2019-01-04T15:03:55.907Z,15.07
2019-01-04T15:06:25.132Z,22.90
2019-01-04T15:08:54.322Z,23.77
2019-01-04T15:11:23.726Z,27.80
2019-01-04T15:13:52.918Z,25.83
2019-01-04T15:16:22.340Z,22.30
2019-01-04T15:18:51.546Z,24.77
2019-01-04T15:21:21.055Z,22.03
2019-01-04T15:23:50.249Z,22.03
2019-01-04T15:26:19.852Z,21.53
2019-01-04T15:28:49.049Z,23.23
2019-01-04T15:31:18.310Z,22.63
2019-01-04T15:33:47.805Z,24.90
2019-01-04T15:36:17.039Z,31.83
2019-01-04T15:38:46.255Z,29.73
2019-01-04T15:41:15.498Z,31.77
2019-01-04T15:43:44.734Z,28.63
2019-01-04T15:46:14.235Z,33.00
2019-01-04T15:48:43.462Z,31.30
2019-01-04T15:51:12.944Z,27.83
2019-01-04T15:53:42.516Z,33.20
2019-01-04T15:56:11.757Z,33.63
2019-01-04T15:58:41.590Z,25.30
2019-01-04T16:01:11.045Z,26.57
2019-01-04T16:03:40.288Z,30.00
2019-01-04T16:06:09.487Z,36.50
2019-01-04T16:08:38.779Z,29.37
2019-01-04T16:11:08.261Z,25.93
2019-01-04T16:13:37.569Z,35.43
2019-01-04T16:16:06.785Z,26.20
2019-01-04T16:18:36.043Z,25.37
2019-01-04T16:21:05.622Z,32.17
2019-01-04T16:23:34.860Z,32.90
2019-01-04T16:26:04.159Z,39.37
2019-01-04T16:28:33.383Z,27.73
2019-01-04T16:31:02.972Z,34.03
2019-01-04T16:33:32.196Z,33.83
2019-01-04T16:36:01.427Z,28.27
2019-01-04T16:38:30.656Z,30.20
2019-01-04T16:40:59.868Z,31.23
2019-01-04T16:43:29.098Z,34.10
2019-01-04T16:45:58.342Z,35.23
2019-01-04T16:48:27.572Z,37.97
2019-01-04T16:50:56.775Z,28.80
2019-01-04T16:53:26.813Z,30.13
2019-01-04T16:55:56.017Z,29.23
2019-01-04T16:58:25.261Z,33.23
2019-01-04T17:00:54.460Z,28.80
2019-01-04T17:03:23.741Z,30.83
2019-01-04T17:05:52.961Z,35.73
2019-01-04T17:08:22.181Z,32.37
2019-01-04T17:10:51.377Z,37.03
2019-01-04T17:13:20.607Z,34.73
2019-01-04T17:15:50.076Z,26.87
2019-01-04T17:18:19.683Z,33.63
2019-01-04T17:20:49.168Z,28.47
2019-01-04T17:23:18.775Z,28.00
2019-01-04T17:25:47.968Z,28.20
2019-01-04T17:28:17.204Z,20.40
2019-01-04T17:30:46.405Z,25.50
2019-01-04T17:33:15.686Z,23.40
2019-01-04T17:35:45.249Z,22.10
2019-01-04T17:38:14.750Z,22.73
2019-01-04T17:40:43.990Z,29.30
2019-01-04T17:43:13.215Z,21.20
2019-01-04T17:45:42.845Z,21.70
2019-01-04T17:48:12.038Z,20.30
2019-01-04T17:50:41.374Z,24.90
2019-01-04T17:53:10.592Z,25.77
2019-01-04T17:55:39.904Z,24.40
2019-01-04T17:58:16.473Z,24.97
2019-01-04T18:00:45.698Z,22.53
2019-01-04T18:03:14.923Z,25.43
2019-01-04T18:05:44.150Z,25.47
2019-01-04T18:08:13.369Z,24.43
2019-01-04T18:10:42.591Z,25.03
2019-01-04T18:13:12.132Z,21.03
2019-01-04T18:15:41.476Z,25.63
2019-01-04T18:18:10.705Z,22.03
2019-01-04T18:20:40.174Z,21.80
2019-01-04T18:23:09.372Z,28.27
2019-01-04T18:25:38.889Z,27.70
2019-01-04T18:28:08.106Z,28.27
2019-01-04T18:30:37.615Z,31.07
2019-01-04T18:33:06.841Z,21.73
2019-01-04T18:35:36.068Z,24.37
2019-01-04T18:38:05.278Z,20.87
2019-01-04T18:40:34.766Z,25.27
2019-01-04T18:43:03.976Z,27.83
2019-01-04T18:45:33.252Z,29.10
2019-01-04T18:48:02.441Z,25.53
2019-01-04T18:50:32.141Z,25.93
2019-01-04T18:53:01.334Z,23.53
2019-01-04T18:55:30.555Z,25.73
2019-01-04T18:57:59.741Z,30.03
2019-01-04T19:00:28.983Z,22.10
2019-01-04T19:02:58.181Z,33.47
2019-01-04T19:05:27.413Z,26.07
2019-01-04T19:07:56.884Z,33.00
2019-01-04T19:10:26.122Z,31.93
2019-01-04T19:12:55.321Z,31.37
2019-01-04T19:15:24.796Z,30.10
2019-01-04T19:17:53.990Z,30.20
2019-01-04T19:20:23.486Z,24.97
2019-01-04T19:22:52.680Z,28.20
2019-01-04T19:25:22.162Z,30.10
2019-01-04T19:27:51.362Z,29.43
2019-01-04T19:30:20.635Z,29.37
2019-01-04T19:40:32.207Z,22.70
2019-01-04T19:48:40.584Z,25.30
2019-01-04T19:51:09.837Z,24.07
2019-01-04T19:53:39.054Z,30.20
2019-01-04T19:56:08.312Z,30.70
2019-01-04T19:58:37.541Z,31.23
2019-01-04T20:01:07.063Z,30.37
2019-01-04T20:03:36.536Z,23.90
2019-01-04T20:06:57.555Z,29.77
2019-01-04T20:10:12.311Z,32.77
2019-01-04T20:13:38.493Z,30.40
2019-01-04T20:17:05.069Z,32.53
2019-01-04T20:19:54.275Z,32.57
2019-01-04T20:56:21.120Z,25.03
2019-01-04T21:45:43.326Z,26.77
2019-01-04T21:54:04.784Z,26.47
2019-01-04T23:13:39.087Z,27.23
2019-01-04T23:30:12.414Z,22.23
2019-01-04T23:43:57.047Z,24.20
2019-01-04T23:46:45.680Z,24.43
2019-01-04T23:49:34.094Z,27.00
2019-01-04T23:52:23.687Z,23.47
2019-01-04T23:58:02.885Z,27.70
